Terminal Aerodrome Forecast
Issued by NWS

Current Version | Previous Version | Text Only | Print | Product List | Glossary On
Versions: 1 2 3 4 5 6 7 8 9 10 11 12 13 14 15 16
183
FTUS43 KABR 302340
TAFPIR
TAF
KPIR 302340Z 3100/3124 18011KT P6SM VCTS SCT050CB BKN100
      TEMPO 3100/3101 5SM TSRA BKN040CB
     FM310200 27013KT P6SM BKN250
     FM311600 28018G26KT P6SM SKC=

USA.gov is the U.S. government's official web portal to all federal, state and local government web resources and services.